sensor_id;sensor_type;location;lat;lon;timestamp;temperature;humidity
25512;DHT22;13414;44.534;18.700;2023-03-14T00:01:11;4.90;1.00
25512;DHT22;13414;44.534;18.700;2023-03-14T00:03:39;4.90;1.00
25512;DHT22;13414;44.534;18.700;2023-03-14T00:06:08;4.90;1.00
25512;DHT22;13414;44.534;18.700;2023-03-14T00:08:36;4.90;1.00
25512;DHT22;13414;44.534;18.700;2023-03-14T00:11:07;4.90;99.90
25512;DHT22;13414;44.534;18.700;2023-03-14T00:13:36;5.00;1.00
25512;DHT22;13414;44.534;18.700;2023-03-14T00:16:05;5.00;1.00
25512;DHT22;13414;44.534;18.700;2023-03-14T00:18:34;4.90;1.00
25512;DHT22;13414;44.534;18.700;2023-03-14T00:21:02;4.90;1.00
25512;DHT22;13414;44.534;18.700;2023-03-14T00:23:32;4.90;1.00
25512;DHT22;13414;44.534;18.700;2023-03-14T00:26:00;4.90;99.90
25512;DHT22;13414;44.534;18.700;2023-03-14T00:28:28;4.90;1.00
25512;DHT22;13414;44.534;18.700;2023-03-14T00:30:57;4.90;1.00
25512;DHT22;13414;44.534;18.700;2023-03-14T00:33:25;4.90;1.00
25512;DHT22;13414;44.534;18.700;2023-03-14T00:35:54;4.90;99.90
25512;DHT22;13414;44.534;18.700;2023-03-14T00:38:21;4.90;70.70
25512;DHT22;13414;44.534;18.700;2023-03-14T00:40:50;4.90;1.00
25512;DHT22;13414;44.534;18.700;2023-03-14T00:43:18;4.90;1.00
25512;DHT22;13414;44.534;18.700;2023-03-14T00:45:47;4.90;1.00
25512;DHT22;13414;44.534;18.700;2023-03-14T00:48:16;4.90;1.00
25512;DHT22;13414;44.534;18.700;2023-03-14T00:50:44;4.90;99.90
25512;DHT22;13414;44.534;18.700;2023-03-14T00:53:14;4.90;99.90
25512;DHT22;13414;44.534;18.700;2023-03-14T00:55:43;4.90;99.90
25512;DHT22;13414;44.534;18.700;2023-03-14T00:58:12;4.80;99.90
25512;DHT22;13414;44.534;18.700;2023-03-14T01:00:40;4.80;17.80
25512;DHT22;13414;44.534;18.700;2023-03-14T01:03:09;4.80;99.90
25512;DHT22;13414;44.534;18.700;2023-03-14T01:05:38;4.70;99.90
25512;DHT22;13414;44.534;18.700;2023-03-14T01:08:08;4.70;81.10
25512;DHT22;13414;44.534;18.700;2023-03-14T01:10:38;4.70;1.00
25512;DHT22;13414;44.534;18.700;2023-03-14T01:13:06;4.70;44.60
25512;DHT22;13414;44.534;18.700;2023-03-14T01:15:36;4.70;1.00
25512;DHT22;13414;44.534;18.700;2023-03-14T01:18:04;4.70;1.00
25512;DHT22;13414;44.534;18.700;2023-03-14T01:20:31;4.70;46.70
25512;DHT22;13414;44.534;18.700;2023-03-14T01:23:00;4.80;1.00
25512;DHT22;13414;44.534;18.700;2023-03-14T01:25:28;4.80;1.00
25512;DHT22;13414;44.534;18.700;2023-03-14T01:27:56;4.80;1.00
25512;DHT22;13414;44.534;18.700;2023-03-14T01:30:23;4.80;1.00
25512;DHT22;13414;44.534;18.700;2023-03-14T01:32:51;4.80;1.00
25512;DHT22;13414;44.534;18.700;2023-03-14T01:35:19;4.80;1.00
25512;DHT22;13414;44.534;18.700;2023-03-14T01:37:46;4.80;1.00
25512;DHT22;13414;44.534;18.700;2023-03-14T01:40:20;4.90;1.00
25512;DHT22;13414;44.534;18.700;2023-03-14T01:42:54;4.90;1.00
25512;DHT22;13414;44.534;18.700;2023-03-14T01:48:31;4.90;1.00
25512;DHT22;13414;44.534;18.700;2023-03-14T01:51:00;4.80;1.00
25512;DHT22;13414;44.534;18.700;2023-03-14T01:53:29;4.80;1.00
25512;DHT22;13414;44.534;18.700;2023-03-14T01:55:58;4.80;1.00
25512;DHT22;13414;44.534;18.700;2023-03-14T01:58:27;4.80;1.00
25512;DHT22;13414;44.534;18.700;2023-03-14T02:00:58;4.80;1.00
25512;DHT22;13414;44.534;18.700;2023-03-14T02:03:27;4.70;1.00
25512;DHT22;13414;44.534;18.700;2023-03-14T02:06:00;4.70;1.00
25512;DHT22;13414;44.534;18.700;2023-03-14T02:08:33;4.70;1.00
25512;DHT22;13414;44.534;18.700;2023-03-14T02:11:07;4.60;1.00
25512;DHT22;13414;44.534;18.700;2023-03-14T02:13:55;4.60;1.00
25512;DHT22;13414;44.534;18.700;2023-03-14T02:16:47;4.60;1.00
25512;DHT22;13414;44.534;18.700;2023-03-14T02:19:45;4.60;66.40
25512;DHT22;13414;44.534;18.700;2023-03-14T02:22:32;4.60;99.90
25512;DHT22;13414;44.534;18.700;2023-03-14T02:25:08;4.60;99.90
25512;DHT22;13414;44.534;18.700;2023-03-14T02:27:40;4.60;99.90
25512;DHT22;13414;44.534;18.700;2023-03-14T02:30:11;4.60;3.10
25512;DHT22;13414;44.534;18.700;2023-03-14T02:32:45;4.60;99.90
25512;DHT22;13414;44.534;18.700;2023-03-14T02:35:17;4.50;99.90
25512;DHT22;13414;44.534;18.700;2023-03-14T02:37:48;4.60;99.90
25512;DHT22;13414;44.534;18.700;2023-03-14T02:40:16;4.60;99.90
25512;DHT22;13414;44.534;18.700;2023-03-14T02:42:47;4.60;99.90
25512;DHT22;13414;44.534;18.700;2023-03-14T02:45:40;4.60;99.90
25512;DHT22;13414;44.534;18.700;2023-03-14T02:48:13;4.50;99.90
25512;DHT22;13414;44.534;18.700;2023-03-14T02:50:42;4.50;99.90
25512;DHT22;13414;44.534;18.700;2023-03-14T02:53:13;4.40;99.90
25512;DHT22;13414;44.534;18.700;2023-03-14T02:55:45;4.50;99.90
25512;DHT22;13414;44.534;18.700;2023-03-14T02:58:16;4.50;99.90
25512;DHT22;13414;44.534;18.700;2023-03-14T03:00:45;4.60;99.90
25512;DHT22;13414;44.534;18.700;2023-03-14T03:03:13;4.60;99.90
25512;DHT22;13414;44.534;18.700;2023-03-14T03:05:41;4.70;99.90
25512;DHT22;13414;44.534;18.700;2023-03-14T03:08:10;4.70;3.40
25512;DHT22;13414;44.534;18.700;2023-03-14T03:10:38;4.70;1.00
25512;DHT22;13414;44.534;18.700;2023-03-14T03:13:06;4.80;1.00
25512;DHT22;13414;44.534;18.700;2023-03-14T03:15:35;4.80;1.00
25512;DHT22;13414;44.534;18.700;2023-03-14T03:18:03;4.90;1.00
25512;DHT22;13414;44.534;18.700;2023-03-14T03:20:31;4.90;1.00
25512;DHT22;13414;44.534;18.700;2023-03-14T03:22:58;4.90;1.00
25512;DHT22;13414;44.534;18.700;2023-03-14T03:25:27;5.00;1.00
25512;DHT22;13414;44.534;18.700;2023-03-14T03:27:54;5.00;1.00
25512;DHT22;13414;44.534;18.700;2023-03-14T03:30:22;5.00;1.00
25512;DHT22;13414;44.534;18.700;2023-03-14T03:32:51;5.00;1.00
25512;DHT22;13414;44.534;18.700;2023-03-14T03:35:18;5.00;1.00
25512;DHT22;13414;44.534;18.700;2023-03-14T03:37:46;5.00;1.00
25512;DHT22;13414;44.534;18.700;2023-03-14T03:40:13;5.00;1.00
25512;DHT22;13414;44.534;18.700;2023-03-14T03:42:41;5.10;1.00
25512;DHT22;13414;44.534;18.700;2023-03-14T03:45:10;5.10;1.00
25512;DHT22;13414;44.534;18.700;2023-03-14T03:47:47;5.10;1.00
25512;DHT22;13414;44.534;18.700;2023-03-14T03:50:17;5.10;1.00
25512;DHT22;13414;44.534;18.700;2023-03-14T03:52:44;5.00;1.00
25512;DHT22;13414;44.534;18.700;2023-03-14T03:55:12;5.00;1.00
25512;DHT22;13414;44.534;18.700;2023-03-14T03:57:39;5.00;1.00
25512;DHT22;13414;44.534;18.700;2023-03-14T04:00:09;5.00;1.00
25512;DHT22;13414;44.534;18.700;2023-03-14T04:02:41;5.00;1.00
25512;DHT22;13414;44.534;18.700;2023-03-14T04:05:12;5.00;1.00
25512;DHT22;13414;44.534;18.700;2023-03-14T04:07:49;5.00;1.00
25512;DHT22;13414;44.534;18.700;2023-03-14T04:10:22;5.00;1.00
25512;DHT22;13414;44.534;18.700;2023-03-14T04:13:06;5.00;1.00
25512;DHT22;13414;44.534;18.700;2023-03-14T04:15:35;4.90;1.00
25512;DHT22;13414;44.534;18.700;2023-03-14T04:18:09;4.90;1.00
25512;DHT22;13414;44.534;18.700;2023-03-14T04:20:36;4.90;1.00
25512;DHT22;13414;44.534;18.700;2023-03-14T04:23:06;4.90;1.00
25512;DHT22;13414;44.534;18.700;2023-03-14T04:25:34;5.00;1.00
25512;DHT22;13414;44.534;18.700;2023-03-14T04:28:04;5.00;1.00
25512;DHT22;13414;44.534;18.700;2023-03-14T04:30:32;5.00;1.00
25512;DHT22;13414;44.534;18.700;2023-03-14T04:33:09;5.00;1.00
25512;DHT22;13414;44.534;18.700;2023-03-14T04:35:44;5.00;1.00
25512;DHT22;13414;44.534;18.700;2023-03-14T04:38:15;4.90;1.00
25512;DHT22;13414;44.534;18.700;2023-03-14T04:40:45;4.90;1.00
25512;DHT22;13414;44.534;18.700;2023-03-14T04:43:13;4.90;1.00
25512;DHT22;13414;44.534;18.700;2023-03-14T04:45:49;4.90;1.00
25512;DHT22;13414;44.534;18.700;2023-03-14T04:48:17;4.90;1.00
25512;DHT22;13414;44.534;18.700;2023-03-14T04:50:46;4.90;1.00
25512;DHT22;13414;44.534;18.700;2023-03-14T04:53:16;4.90;1.00
25512;DHT22;13414;44.534;18.700;2023-03-14T04:55:48;4.90;1.00
25512;DHT22;13414;44.534;18.700;2023-03-14T04:58:16;4.90;1.00
25512;DHT22;13414;44.534;18.700;2023-03-14T05:00:45;4.90;1.00
25512;DHT22;13414;44.534;18.700;2023-03-14T05:03:35;4.90;99.90
25512;DHT22;13414;44.534;18.700;2023-03-14T05:06:27;4.90;99.90
25512;DHT22;13414;44.534;18.700;2023-03-14T05:09:17;4.90;99.90
25512;DHT22;13414;44.534;18.700;2023-03-14T05:11:58;4.90;99.90
25512;DHT22;13414;44.534;18.700;2023-03-14T05:14:44;5.00;99.90
25512;DHT22;13414;44.534;18.700;2023-03-14T05:17:12;5.00;63.90
25512;DHT22;13414;44.534;18.700;2023-03-14T05:19:46;4.90;1.00
25512;DHT22;13414;44.534;18.700;2023-03-14T05:22:32;5.00;1.00
25512;DHT22;13414;44.534;18.700;2023-03-14T05:25:33;5.00;1.00
25512;DHT22;13414;44.534;18.700;2023-03-14T05:28:11;5.10;1.00
25512;DHT22;13414;44.534;18.700;2023-03-14T05:30:52;5.20;1.00
25512;DHT22;13414;44.534;18.700;2023-03-14T05:33:40;5.20;1.00
25512;DHT22;13414;44.534;18.700;2023-03-14T05:36:33;5.30;1.00
25512;DHT22;13414;44.534;18.700;2023-03-14T05:39:26;5.40;1.00
25512;DHT22;13414;44.534;18.700;2023-03-14T05:42:22;5.50;1.00
25512;DHT22;13414;44.534;18.700;2023-03-14T05:45:16;5.60;1.00
25512;DHT22;13414;44.534;18.700;2023-03-14T05:48:06;5.60;99.90
25512;DHT22;13414;44.534;18.700;2023-03-14T05:50:42;5.70;99.90
25512;DHT22;13414;44.534;18.700;2023-03-14T05:53:20;5.70;99.90
25512;DHT22;13414;44.534;18.700;2023-03-14T05:56:13;5.90;99.90
25512;DHT22;13414;44.534;18.700;2023-03-14T05:59:02;6.00;99.90
25512;DHT22;13414;44.534;18.700;2023-03-14T06:01:37;6.10;99.90
25512;DHT22;13414;44.534;18.700;2023-03-14T06:04:18;6.20;99.90
25512;DHT22;13414;44.534;18.700;2023-03-14T06:06:50;6.30;99.90
25512;DHT22;13414;44.534;18.700;2023-03-14T06:09:18;6.40;63.80
25512;DHT22;13414;44.534;18.700;2023-03-14T06:11:48;6.50;1.00
25512;DHT22;13414;44.534;18.700;2023-03-14T06:14:18;6.60;1.00
25512;DHT22;13414;44.534;18.700;2023-03-14T06:16:47;6.70;1.00
25512;DHT22;13414;44.534;18.700;2023-03-14T06:19:17;6.80;1.00
25512;DHT22;13414;44.534;18.700;2023-03-14T06:21:44;6.90;1.00
25512;DHT22;13414;44.534;18.700;2023-03-14T06:24:12;7.00;1.00
25512;DHT22;13414;44.534;18.700;2023-03-14T06:26:44;7.00;1.00
25512;DHT22;13414;44.534;18.700;2023-03-14T06:29:11;7.10;1.00
25512;DHT22;13414;44.534;18.700;2023-03-14T06:31:42;7.10;1.00
25512;DHT22;13414;44.534;18.700;2023-03-14T06:34:10;7.20;1.00
25512;DHT22;13414;44.534;18.700;2023-03-14T06:36:39;7.30;1.00
25512;DHT22;13414;44.534;18.700;2023-03-14T06:39:08;7.50;1.00
25512;DHT22;13414;44.534;18.700;2023-03-14T06:41:39;7.60;1.00
25512;DHT22;13414;44.534;18.700;2023-03-14T06:44:09;7.80;1.00
25512;DHT22;13414;44.534;18.700;2023-03-14T06:46:37;8.00;1.00
25512;DHT22;13414;44.534;18.700;2023-03-14T06:49:07;8.20;1.00
25512;DHT22;13414;44.534;18.700;2023-03-14T06:51:35;8.40;1.00
25512;DHT22;13414;44.534;18.700;2023-03-14T06:54:05;8.60;1.00
25512;DHT22;13414;44.534;18.700;2023-03-14T06:56:32;8.70;1.00
25512;DHT22;13414;44.534;18.700;2023-03-14T06:59:00;8.90;1.00
25512;DHT22;13414;44.534;18.700;2023-03-14T07:01:31;9.00;1.00
25512;DHT22;13414;44.534;18.700;2023-03-14T07:04:11;9.10;1.00
25512;DHT22;13414;44.534;18.700;2023-03-14T07:06:43;9.20;1.00
25512;DHT22;13414;44.534;18.700;2023-03-14T07:09:12;9.40;1.00
25512;DHT22;13414;44.534;18.700;2023-03-14T07:11:45;9.60;1.00
25512;DHT22;13414;44.534;18.700;2023-03-14T07:14:13;9.70;1.00
25512;DHT22;13414;44.534;18.700;2023-03-14T07:16:41;9.90;1.00
25512;DHT22;13414;44.534;18.700;2023-03-14T07:19:09;10.00;1.00
25512;DHT22;13414;44.534;18.700;2023-03-14T07:21:38;10.20;1.00
25512;DHT22;13414;44.534;18.700;2023-03-14T07:24:09;10.40;1.00
25512;DHT22;13414;44.534;18.700;2023-03-14T07:26:37;10.70;1.00
25512;DHT22;13414;44.534;18.700;2023-03-14T07:29:05;10.80;1.00
25512;DHT22;13414;44.534;18.700;2023-03-14T07:31:33;11.00;1.00
25512;DHT22;13414;44.534;18.700;2023-03-14T07:34:02;11.20;1.00
25512;DHT22;13414;44.534;18.700;2023-03-14T07:36:34;11.40;1.00
25512;DHT22;13414;44.534;18.700;2023-03-14T07:39:05;11.60;1.00
25512;DHT22;13414;44.534;18.700;2023-03-14T07:41:52;11.70;1.00
25512;DHT22;13414;44.534;18.700;2023-03-14T07:44:33;12.10;99.90
25512;DHT22;13414;44.534;18.700;2023-03-14T07:47:00;12.40;99.90
25512;DHT22;13414;44.534;18.700;2023-03-14T07:49:27;12.70;99.90
25512;DHT22;13414;44.534;18.700;2023-03-14T07:51:55;13.10;99.90
25512;DHT22;13414;44.534;18.700;2023-03-14T07:54:24;13.50;99.90
25512;DHT22;13414;44.534;18.700;2023-03-14T07:56:51;13.80;99.90
25512;DHT22;13414;44.534;18.700;2023-03-14T07:59:19;14.00;99.90
25512;DHT22;13414;44.534;18.700;2023-03-14T08:01:46;14.30;99.90
25512;DHT22;13414;44.534;18.700;2023-03-14T08:04:14;14.50;99.90
25512;DHT22;13414;44.534;18.700;2023-03-14T08:06:41;14.70;99.90
25512;DHT22;13414;44.534;18.700;2023-03-14T08:09:08;14.90;99.90
25512;DHT22;13414;44.534;18.700;2023-03-14T08:11:37;15.20;99.90
25512;DHT22;13414;44.534;18.700;2023-03-14T08:14:05;15.30;99.90
25512;DHT22;13414;44.534;18.700;2023-03-14T08:16:32;15.50;99.90
25512;DHT22;13414;44.534;18.700;2023-03-14T08:19:00;15.60;99.90
25512;DHT22;13414;44.534;18.700;2023-03-14T08:21:27;15.80;99.90
25512;DHT22;13414;44.534;18.700;2023-03-14T08:23:55;16.00;99.90
25512;DHT22;13414;44.534;18.700;2023-03-14T08:26:22;16.00;99.90
25512;DHT22;13414;44.534;18.700;2023-03-14T08:28:51;16.20;99.90
25512;DHT22;13414;44.534;18.700;2023-03-14T08:31:18;16.40;99.90
25512;DHT22;13414;44.534;18.700;2023-03-14T08:33:46;16.60;99.90
25512;DHT22;13414;44.534;18.700;2023-03-14T08:36:13;16.80;99.90
25512;DHT22;13414;44.534;18.700;2023-03-14T08:38:41;17.00;99.90
25512;DHT22;13414;44.534;18.700;2023-03-14T08:41:09;17.10;99.90
25512;DHT22;13414;44.534;18.700;2023-03-14T08:43:36;17.30;99.90
25512;DHT22;13414;44.534;18.700;2023-03-14T08:46:06;17.40;99.90
25512;DHT22;13414;44.534;18.700;2023-03-14T08:48:33;17.40;99.90
25512;DHT22;13414;44.534;18.700;2023-03-14T08:51:05;17.60;99.90
25512;DHT22;13414;44.534;18.700;2023-03-14T08:53:32;17.60;99.90
25512;DHT22;13414;44.534;18.700;2023-03-14T08:56:00;17.60;99.90
25512;DHT22;13414;44.534;18.700;2023-03-14T08:58:27;17.70;99.90
25512;DHT22;13414;44.534;18.700;2023-03-14T09:00:55;17.80;99.90
25512;DHT22;13414;44.534;18.700;2023-03-14T09:03:25;17.80;99.90
25512;DHT22;13414;44.534;18.700;2023-03-14T09:05:52;17.90;99.90
25512;DHT22;13414;44.534;18.700;2023-03-14T09:08:20;18.00;99.90
25512;DHT22;13414;44.534;18.700;2023-03-14T09:10:47;18.00;99.90
25512;DHT22;13414;44.534;18.700;2023-03-14T09:13:14;18.00;99.90
25512;DHT22;13414;44.534;18.700;2023-03-14T09:15:42;18.10;99.90
25512;DHT22;13414;44.534;18.700;2023-03-14T09:18:09;18.00;99.90
25512;DHT22;13414;44.534;18.700;2023-03-14T09:20:39;17.90;99.90
25512;DHT22;13414;44.534;18.700;2023-03-14T09:23:07;17.90;99.90
25512;DHT22;13414;44.534;18.700;2023-03-14T09:25:35;17.80;99.90
25512;DHT22;13414;44.534;18.700;2023-03-14T09:28:02;17.90;99.90
25512;DHT22;13414;44.534;18.700;2023-03-14T09:30:30;17.80;99.90
25512;DHT22;13414;44.534;18.700;2023-03-14T09:32:57;17.90;99.90
25512;DHT22;13414;44.534;18.700;2023-03-14T09:35:25;18.10;99.90
25512;DHT22;13414;44.534;18.700;2023-03-14T09:37:54;18.20;99.90
25512;DHT22;13414;44.534;18.700;2023-03-14T09:40:21;18.40;99.90
25512;DHT22;13414;44.534;18.700;2023-03-14T09:42:51;18.50;99.90
25512;DHT22;13414;44.534;18.700;2023-03-14T09:45:26;18.60;99.90
25512;DHT22;13414;44.534;18.700;2023-03-14T09:47:55;18.60;99.90
25512;DHT22;13414;44.534;18.700;2023-03-14T09:50:25;18.60;99.90
25512;DHT22;13414;44.534;18.700;2023-03-14T09:52:58;18.70;99.90
25512;DHT22;13414;44.534;18.700;2023-03-14T09:55:26;18.80;99.90
25512;DHT22;13414;44.534;18.700;2023-03-14T09:57:57;18.90;99.90
25512;DHT22;13414;44.534;18.700;2023-03-14T10:00:28;18.90;99.90
25512;DHT22;13414;44.534;18.700;2023-03-14T10:02:59;18.80;99.90
25512;DHT22;13414;44.534;18.700;2023-03-14T10:05:29;18.90;99.90
25512;DHT22;13414;44.534;18.700;2023-03-14T10:07:58;19.10;99.90
25512;DHT22;13414;44.534;18.700;2023-03-14T10:10:26;19.00;99.90
25512;DHT22;13414;44.534;18.700;2023-03-14T10:12:56;19.10;99.90
25512;DHT22;13414;44.534;18.700;2023-03-14T10:15:26;19.10;99.90
25512;DHT22;13414;44.534;18.700;2023-03-14T10:17:54;19.20;99.90
25512;DHT22;13414;44.534;18.700;2023-03-14T10:20:31;19.20;99.90
25512;DHT22;13414;44.534;18.700;2023-03-14T10:23:03;19.30;99.90
25512;DHT22;13414;44.534;18.700;2023-03-14T10:25:32;19.50;99.90
25512;DHT22;13414;44.534;18.700;2023-03-14T10:28:00;19.60;99.90
25512;DHT22;13414;44.534;18.700;2023-03-14T10:30:30;19.60;99.90
25512;DHT22;13414;44.534;18.700;2023-03-14T10:33:08;19.70;99.90
25512;DHT22;13414;44.534;18.700;2023-03-14T10:35:36;19.80;99.90
25512;DHT22;13414;44.534;18.700;2023-03-14T10:38:05;19.80;99.90
25512;DHT22;13414;44.534;18.700;2023-03-14T10:40:34;19.80;99.90
25512;DHT22;13414;44.534;18.700;2023-03-14T10:43:05;19.90;99.90
25512;DHT22;13414;44.534;18.700;2023-03-14T10:45:36;20.00;99.90
25512;DHT22;13414;44.534;18.700;2023-03-14T10:48:19;20.10;99.90
25512;DHT22;13414;44.534;18.700;2023-03-14T10:50:55;20.40;99.90
25512;DHT22;13414;44.534;18.700;2023-03-14T10:53:24;20.60;99.90
25512;DHT22;13414;44.534;18.700;2023-03-14T10:55:52;20.80;99.90
25512;DHT22;13414;44.534;18.700;2023-03-14T10:58:24;21.10;99.90
25512;DHT22;13414;44.534;18.700;2023-03-14T11:00:58;21.40;99.90
25512;DHT22;13414;44.534;18.700;2023-03-14T11:03:29;21.60;99.90
25512;DHT22;13414;44.534;18.700;2023-03-14T11:06:03;21.50;99.90
25512;DHT22;13414;44.534;18.700;2023-03-14T11:08:37;21.50;99.90
25512;DHT22;13414;44.534;18.700;2023-03-14T11:11:15;21.50;99.90
25512;DHT22;13414;44.534;18.700;2023-03-14T11:13:54;21.70;99.90
25512;DHT22;13414;44.534;18.700;2023-03-14T11:16:29;21.70;99.90
25512;DHT22;13414;44.534;18.700;2023-03-14T11:19:07;21.70;99.90
25512;DHT22;13414;44.534;18.700;2023-03-14T11:21:45;21.80;99.90
25512;DHT22;13414;44.534;18.700;2023-03-14T11:24:38;21.80;99.90
25512;DHT22;13414;44.534;18.700;2023-03-14T11:27:15;21.80;99.90
25512;DHT22;13414;44.534;18.700;2023-03-14T11:29:50;21.80;99.90
25512;DHT22;13414;44.534;18.700;2023-03-14T11:32:33;21.80;99.90
25512;DHT22;13414;44.534;18.700;2023-03-14T11:35:04;22.00;99.90
25512;DHT22;13414;44.534;18.700;2023-03-14T11:37:40;22.00;99.90
25512;DHT22;13414;44.534;18.700;2023-03-14T11:40:16;21.80;99.90
25512;DHT22;13414;44.534;18.700;2023-03-14T11:42:51;21.60;99.90
25512;DHT22;13414;44.534;18.700;2023-03-14T11:45:25;21.30;99.90
25512;DHT22;13414;44.534;18.700;2023-03-14T11:48:01;21.10;99.90
25512;DHT22;13414;44.534;18.700;2023-03-14T11:50:30;20.90;99.90
25512;DHT22;13414;44.534;18.700;2023-03-14T11:53:02;20.90;99.90
25512;DHT22;13414;44.534;18.700;2023-03-14T11:55:34;20.80;99.90
25512;DHT22;13414;44.534;18.700;2023-03-14T11:58:11;20.80;99.90
25512;DHT22;13414;44.534;18.700;2023-03-14T12:00:41;20.80;99.90
25512;DHT22;13414;44.534;18.700;2023-03-14T12:03:14;20.70;99.90
25512;DHT22;13414;44.534;18.700;2023-03-14T12:05:49;20.70;99.90
25512;DHT22;13414;44.534;18.700;2023-03-14T12:08:34;20.70;99.90
25512;DHT22;13414;44.534;18.700;2023-03-14T12:11:13;20.70;99.90
25512;DHT22;13414;44.534;18.700;2023-03-14T12:13:46;20.70;99.90
25512;DHT22;13414;44.534;18.700;2023-03-14T12:16:36;20.70;99.90
25512;DHT22;13414;44.534;18.700;2023-03-14T12:22:23;20.80;99.90
25512;DHT22;13414;44.534;18.700;2023-03-14T12:24:54;20.90;99.90
25512;DHT22;13414;44.534;18.700;2023-03-14T12:27:44;20.90;99.90
25512;DHT22;13414;44.534;18.700;2023-03-14T12:30:23;20.70;99.90
25512;DHT22;13414;44.534;18.700;2023-03-14T12:33:13;20.60;99.90
25512;DHT22;13414;44.534;18.700;2023-03-14T12:35:47;20.60;99.90
25512;DHT22;13414;44.534;18.700;2023-03-14T12:38:17;20.60;99.90
25512;DHT22;13414;44.534;18.700;2023-03-14T12:40:57;20.70;99.90
25512;DHT22;13414;44.534;18.700;2023-03-14T12:43:29;20.70;99.90
25512;DHT22;13414;44.534;18.700;2023-03-14T12:46:15;20.70;99.90
25512;DHT22;13414;44.534;18.700;2023-03-14T12:48:48;20.70;99.90
25512;DHT22;13414;44.534;18.700;2023-03-14T12:51:18;20.70;99.90
25512;DHT22;13414;44.534;18.700;2023-03-14T12:57:06;20.80;99.90
25512;DHT22;13414;44.534;18.700;2023-03-14T12:59:43;20.80;99.90
25512;DHT22;13414;44.534;18.700;2023-03-14T13:02:23;20.80;99.90
25512;DHT22;13414;44.534;18.700;2023-03-14T13:04:54;20.70;99.90
25512;DHT22;13414;44.534;18.700;2023-03-14T13:07:39;20.70;99.90
25512;DHT22;13414;44.534;18.700;2023-03-14T13:10:26;20.60;99.90
25512;DHT22;13414;44.534;18.700;2023-03-14T13:12:56;20.60;99.90
25512;DHT22;13414;44.534;18.700;2023-03-14T13:15:28;20.60;99.90
25512;DHT22;13414;44.534;18.700;2023-03-14T13:18:01;20.60;99.90
25512;DHT22;13414;44.534;18.700;2023-03-14T13:20:31;20.70;99.90
25512;DHT22;13414;44.534;18.700;2023-03-14T13:23:01;20.70;99.90
25512;DHT22;13414;44.534;18.700;2023-03-14T13:25:34;20.70;99.90
25512;DHT22;13414;44.534;18.700;2023-03-14T13:28:01;20.70;99.90
25512;DHT22;13414;44.534;18.700;2023-03-14T13:30:38;20.70;99.90
25512;DHT22;13414;44.534;18.700;2023-03-14T13:33:11;20.70;99.90
25512;DHT22;13414;44.534;18.700;2023-03-14T13:35:40;20.70;99.90
25512;DHT22;13414;44.534;18.700;2023-03-14T13:38:17;20.70;99.90
25512;DHT22;13414;44.534;18.700;2023-03-14T13:40:45;20.70;99.90
25512;DHT22;13414;44.534;18.700;2023-03-14T13:43:19;20.70;99.90
25512;DHT22;13414;44.534;18.700;2023-03-14T13:45:54;20.80;99.90
25512;DHT22;13414;44.534;18.700;2023-03-14T13:48:26;20.80;99.90
25512;DHT22;13414;44.534;18.700;2023-03-14T13:50:56;20.80;99.90
25512;DHT22;13414;44.534;18.700;2023-03-14T13:53:25;20.90;99.90
25512;DHT22;13414;44.534;18.700;2023-03-14T13:55:53;21.00;99.90
25512;DHT22;13414;44.534;18.700;2023-03-14T13:58:24;21.10;99.90
25512;DHT22;13414;44.534;18.700;2023-03-14T14:01:03;21.10;99.90
25512;DHT22;13414;44.534;18.700;2023-03-14T14:03:33;21.10;99.90
25512;DHT22;13414;44.534;18.700;2023-03-14T14:06:01;21.00;99.90
25512;DHT22;13414;44.534;18.700;2023-03-14T14:08:29;21.00;99.90
25512;DHT22;13414;44.534;18.700;2023-03-14T14:11:01;21.00;99.90
25512;DHT22;13414;44.534;18.700;2023-03-14T14:13:32;21.00;99.90
25512;DHT22;13414;44.534;18.700;2023-03-14T14:16:06;21.00;99.90
25512;DHT22;13414;44.534;18.700;2023-03-14T14:18:36;21.00;99.90
25512;DHT22;13414;44.534;18.700;2023-03-14T14:21:04;21.00;99.90
25512;DHT22;13414;44.534;18.700;2023-03-14T14:23:35;21.00;99.90
25512;DHT22;13414;44.534;18.700;2023-03-14T14:26:06;21.10;99.90
25512;DHT22;13414;44.534;18.700;2023-03-14T14:28:36;21.20;99.90
25512;DHT22;13414;44.534;18.700;2023-03-14T14:31:21;21.20;99.90
25512;DHT22;13414;44.534;18.700;2023-03-14T14:33:56;21.20;99.90
25512;DHT22;13414;44.534;18.700;2023-03-14T14:36:26;21.10;99.90
25512;DHT22;13414;44.534;18.700;2023-03-14T14:38:58;21.00;99.90
25512;DHT22;13414;44.534;18.700;2023-03-14T14:41:31;20.90;99.90
25512;DHT22;13414;44.534;18.700;2023-03-14T14:44:01;20.80;99.90
25512;DHT22;13414;44.534;18.700;2023-03-14T14:46:34;20.70;99.90
25512;DHT22;13414;44.534;18.700;2023-03-14T14:49:06;20.60;99.90
25512;DHT22;13414;44.534;18.700;2023-03-14T14:51:41;20.60;99.90
25512;DHT22;13414;44.534;18.700;2023-03-14T14:54:12;20.50;99.90
25512;DHT22;13414;44.534;18.700;2023-03-14T14:56:40;20.40;99.90
25512;DHT22;13414;44.534;18.700;2023-03-14T14:59:23;20.30;99.90
25512;DHT22;13414;44.534;18.700;2023-03-14T15:01:55;20.20;99.90
25512;DHT22;13414;44.534;18.700;2023-03-14T15:04:24;20.10;99.90
25512;DHT22;13414;44.534;18.700;2023-03-14T15:06:52;19.90;99.90
25512;DHT22;13414;44.534;18.700;2023-03-14T15:09:20;19.90;99.90
25512;DHT22;13414;44.534;18.700;2023-03-14T15:11:48;19.90;99.90
25512;DHT22;13414;44.534;18.700;2023-03-14T15:14:16;19.90;99.90
25512;DHT22;13414;44.534;18.700;2023-03-14T15:16:43;20.00;99.90
25512;DHT22;13414;44.534;18.700;2023-03-14T15:19:18;20.00;99.90
25512;DHT22;13414;44.534;18.700;2023-03-14T15:21:46;20.10;99.90
25512;DHT22;13414;44.534;18.700;2023-03-14T15:24:13;20.00;99.90
25512;DHT22;13414;44.534;18.700;2023-03-14T15:26:40;20.10;99.90
25512;DHT22;13414;44.534;18.700;2023-03-14T15:29:11;20.10;99.90
25512;DHT22;13414;44.534;18.700;2023-03-14T15:31:38;20.10;99.90
25512;DHT22;13414;44.534;18.700;2023-03-14T15:34:06;20.10;99.90
25512;DHT22;13414;44.534;18.700;2023-03-14T15:36:36;20.20;99.90
25512;DHT22;13414;44.534;18.700;2023-03-14T15:39:05;20.10;99.90
25512;DHT22;13414;44.534;18.700;2023-03-14T15:41:32;20.20;99.90
25512;DHT22;13414;44.534;18.700;2023-03-14T15:44:00;20.10;99.90
25512;DHT22;13414;44.534;18.700;2023-03-14T15:46:27;20.10;99.90
25512;DHT22;13414;44.534;18.700;2023-03-14T15:48:55;20.00;99.90
25512;DHT22;13414;44.534;18.700;2023-03-14T15:51:22;19.90;99.90
25512;DHT22;13414;44.534;18.700;2023-03-14T15:53:51;19.90;99.90
25512;DHT22;13414;44.534;18.700;2023-03-14T15:56:19;19.80;99.90
25512;DHT22;13414;44.534;18.700;2023-03-14T15:58:49;19.70;99.90
25512;DHT22;13414;44.534;18.700;2023-03-14T16:01:17;19.60;99.90
25512;DHT22;13414;44.534;18.700;2023-03-14T16:03:45;19.60;99.90
25512;DHT22;13414;44.534;18.700;2023-03-14T16:06:13;19.50;99.90